createdAt,value
2022-09-10T00:01:31.242Z,1.33
2022-09-10T00:04:00.584Z,1.50
2022-09-10T00:06:29.247Z,1.27
2022-09-10T00:08:58.781Z,1.42
2022-09-10T00:11:31.957Z,1.40
2022-09-10T00:14:01.761Z,1.38
2022-09-10T00:16:31.356Z,1.30
2022-09-10T00:19:01.100Z,1.50
2022-09-10T00:21:29.930Z,1.30
2022-09-10T00:23:58.085Z,1.35
2022-09-10T00:26:28.962Z,1.30
2022-09-10T00:28:59.891Z,1.60
2022-09-10T00:31:28.503Z,1.00
2022-09-10T00:33:56.895Z,1.27
2022-09-10T00:36:32.896Z,1.40
2022-09-10T00:39:03.676Z,1.52
2022-09-10T00:41:32.324Z,1.73
2022-09-10T00:44:02.834Z,1.50
2022-09-10T00:46:43.397Z,1.52
2022-09-10T00:49:28.882Z,1.50
2022-09-10T00:51:56.397Z,1.67
2022-09-10T00:54:28.304Z,1.42
2022-09-10T00:56:59.823Z,1.53
2022-09-10T00:59:28.261Z,1.20
2022-09-10T01:01:58.354Z,1.20
2022-09-10T01:04:27.191Z,1.02
2022-09-10T01:06:56.174Z,1.55
2022-09-10T01:09:25.325Z,1.20
2022-09-10T01:11:58.618Z,1.60
2022-09-10T01:17:23.220Z,1.58
2022-09-10T01:20:06.544Z,1.27
2022-09-10T01:23:04.032Z,1.52
2022-09-10T01:25:49.637Z,1.48
2022-09-10T01:28:32.301Z,1.55
2022-09-10T01:31:10.767Z,1.40
2022-09-10T01:33:53.943Z,1.52
2022-09-10T01:36:28.361Z,1.17
2022-09-10T01:38:56.124Z,1.45
2022-09-10T01:41:28.188Z,1.33
2022-09-10T01:43:56.189Z,1.30
2022-09-10T01:46:54.916Z,1.17
2022-09-10T01:49:32.334Z,1.20
2022-09-10T01:52:35.565Z,1.10
2022-09-10T01:58:19.663Z,1.20
2022-09-10T02:01:16.939Z,1.20
2022-09-10T02:03:47.945Z,1.48
2022-09-10T02:06:21.362Z,1.20
2022-09-10T02:08:52.864Z,1.17
2022-09-10T02:11:21.477Z,1.20
2022-09-10T02:13:53.084Z,1.50
2022-09-10T02:17:01.187Z,1.27
2022-09-10T02:19:29.376Z,1.42
2022-09-10T02:21:58.848Z,1.00
2022-09-10T02:24:27.217Z,1.25
2022-09-10T02:26:54.766Z,1.33
2022-09-10T02:29:23.231Z,1.40
2022-09-10T02:31:51.354Z,1.10
2022-09-10T02:34:20.344Z,0.95
2022-09-10T02:36:49.591Z,1.42
2022-09-10T02:39:17.117Z,1.15
2022-09-10T02:41:45.564Z,1.10
2022-09-10T02:44:13.302Z,1.38
2022-09-10T02:46:40.703Z,1.40
2022-09-10T02:49:09.957Z,1.10
2022-09-10T02:51:39.397Z,1.17
2022-09-10T02:54:07.949Z,1.30
2022-09-10T02:56:36.192Z,1.35
2022-09-10T02:59:04.598Z,1.08
2022-09-10T03:01:34.995Z,1.30
2022-09-10T03:04:05.735Z,1.38
2022-09-10T03:06:33.157Z,1.20
2022-09-10T03:09:02.162Z,1.02
2022-09-10T03:11:29.725Z,1.23
2022-09-10T03:13:59.376Z,1.20
2022-09-10T03:16:27.507Z,1.55
2022-09-10T03:18:56.022Z,1.40
2022-09-10T03:21:25.305Z,1.30
2022-09-10T03:23:56.983Z,1.27
2022-09-10T03:26:27.825Z,1.63
2022-09-10T03:28:55.709Z,1.17
2022-09-10T03:31:27.301Z,1.08
2022-09-10T03:33:55.292Z,1.23
2022-09-10T03:36:22.891Z,1.38
2022-09-10T03:38:50.969Z,1.63
2022-09-10T03:41:18.356Z,1.08
2022-09-10T03:43:46.634Z,1.33
2022-09-10T03:46:15.986Z,1.48
2022-09-10T03:48:45.515Z,1.20
2022-09-10T03:51:13.062Z,1.70
2022-09-10T03:53:41.029Z,1.35
2022-09-10T03:56:11.516Z,1.73
2022-09-10T03:58:40.415Z,1.27
2022-09-10T04:01:09.254Z,1.30
2022-09-10T04:03:39.355Z,1.65
2022-09-10T04:06:16.244Z,1.10
2022-09-10T04:08:44.150Z,1.45
2022-09-10T04:11:15.059Z,1.30
2022-09-10T04:13:43.385Z,1.35
2022-09-10T04:16:12.305Z,1.35
2022-09-10T04:18:40.952Z,1.20
2022-09-10T04:21:08.580Z,1.20
2022-09-10T04:23:38.083Z,1.10
2022-09-10T04:26:18.688Z,1.10
2022-09-10T04:28:50.284Z,1.13
2022-09-10T04:31:18.550Z,1.40
2022-09-10T04:33:46.696Z,1.27
2022-09-10T04:36:15.987Z,1.38
2022-09-10T04:38:44.665Z,1.23
2022-09-10T04:41:15.634Z,1.35
2022-09-10T04:43:44.015Z,1.40
2022-09-10T04:46:11.833Z,1.33
2022-09-10T04:48:42.495Z,1.42
2022-09-10T04:51:16.797Z,1.07
2022-09-10T04:53:47.219Z,1.20
2022-09-10T04:56:15.258Z,1.60
2022-09-10T04:58:44.138Z,1.40
2022-09-10T05:01:12.363Z,1.08
2022-09-10T05:03:40.497Z,1.05
2022-09-10T05:06:08.818Z,1.15
2022-09-10T05:08:36.940Z,1.17
2022-09-10T05:11:05.371Z,1.20
2022-09-10T05:13:33.738Z,1.27
2022-09-10T05:16:02.246Z,1.13
2022-09-10T05:18:51.028Z,1.60
2022-09-10T05:21:20.846Z,1.50
2022-09-10T05:23:49.287Z,1.55
2022-09-10T05:26:16.686Z,1.20
2022-09-10T05:28:44.261Z,1.30
2022-09-10T05:31:16.598Z,1.40
2022-09-10T05:33:46.300Z,1.08
2022-09-10T05:36:14.789Z,1.38
2022-09-10T05:38:45.596Z,1.08
2022-09-10T05:41:13.387Z,1.10
2022-09-10T05:43:45.218Z,1.30
2022-09-10T05:46:13.322Z,1.38
2022-09-10T05:48:44.286Z,1.20
2022-09-10T05:51:12.883Z,1.27
2022-09-10T05:53:41.948Z,1.40
2022-09-10T05:56:09.433Z,1.10
2022-09-10T05:58:38.604Z,1.00
2022-09-10T06:01:07.895Z,1.30
2022-09-10T06:03:35.735Z,1.25
2022-09-10T06:06:03.772Z,1.10
2022-09-10T06:08:35.719Z,1.23
2022-09-10T06:11:13.915Z,0.93
2022-09-10T06:13:45.701Z,1.13
2022-09-10T06:16:14.164Z,1.25
2022-09-10T06:18:44.221Z,1.00
2022-09-10T06:21:17.380Z,1.00
2022-09-10T06:23:53.681Z,1.50
2022-09-10T06:26:21.730Z,1.13
2022-09-10T06:28:53.382Z,0.82
2022-09-10T06:31:21.130Z,1.35
2022-09-10T06:33:50.949Z,1.23
2022-09-10T06:36:21.292Z,1.20
2022-09-10T06:38:51.694Z,1.13
2022-09-10T06:41:19.762Z,1.23
2022-09-10T06:43:52.579Z,0.85
2022-09-10T06:49:31.500Z,1.10
2022-09-10T06:52:01.578Z,1.00
2022-09-10T06:54:29.347Z,1.20
2022-09-10T06:57:04.451Z,1.53
2022-09-10T06:59:32.349Z,1.27
2022-09-10T07:02:02.295Z,2.30
2022-09-10T07:04:29.954Z,1.20
2022-09-10T07:06:59.696Z,1.45
2022-09-10T07:09:27.638Z,1.55
2022-09-10T07:11:57.916Z,1.15
2022-09-10T07:14:27.015Z,1.50
2022-09-10T07:16:56.961Z,1.52
2022-09-10T07:19:27.251Z,1.50
2022-09-10T07:21:54.631Z,1.30
2022-09-10T07:24:22.384Z,1.70
2022-09-10T07:27:03.283Z,1.60
2022-09-10T07:29:35.304Z,1.63
2022-09-10T07:32:04.492Z,1.38
2022-09-10T07:34:32.956Z,1.40
2022-09-10T07:37:02.883Z,1.10
2022-09-10T07:39:31.426Z,1.30
2022-09-10T07:42:00.384Z,1.48
2022-09-10T07:44:30.817Z,1.13
2022-09-10T07:47:03.413Z,1.30
2022-09-10T07:49:32.764Z,1.15
2022-09-10T07:52:01.078Z,1.42
2022-09-10T07:54:38.329Z,1.40
2022-09-10T07:57:06.854Z,1.45
2022-09-10T07:59:35.406Z,1.20
2022-09-10T08:02:06.511Z,1.48
2022-09-10T08:04:37.345Z,1.52
2022-09-10T08:07:08.423Z,1.60
2022-09-10T08:09:39.281Z,1.30
2022-09-10T08:12:09.932Z,1.83
2022-09-10T08:14:38.120Z,1.58
2022-09-10T08:17:05.789Z,1.38
2022-09-10T08:19:38.107Z,1.30
2022-09-10T08:22:09.150Z,1.50
2022-09-10T08:24:48.741Z,1.40
2022-09-10T08:27:17.262Z,1.25
2022-09-10T08:29:45.251Z,1.33
2022-09-10T08:32:17.270Z,1.20
2022-09-10T08:34:46.204Z,1.17
2022-09-10T08:37:13.596Z,1.23
2022-09-10T08:39:41.811Z,1.50
2022-09-10T08:42:26.589Z,1.10
2022-09-10T08:45:02.688Z,1.30
2022-09-10T08:48:02.406Z,1.23
2022-09-10T08:50:52.190Z,1.63
2022-09-10T08:53:29.928Z,1.30
2022-09-10T08:56:15.345Z,2.05
2022-09-10T08:59:04.634Z,2.03
2022-09-10T09:01:45.269Z,2.17
2022-09-10T09:04:36.624Z,1.85
2022-09-10T09:07:16.930Z,1.70
2022-09-10T09:09:51.920Z,1.33
2022-09-10T09:12:45.687Z,1.15
2022-09-10T09:15:15.312Z,1.80
2022-09-10T09:18:04.767Z,1.10
2022-09-10T09:21:07.058Z,1.33
2022-09-10T09:24:12.203Z,1.30
2022-09-10T09:26:47.337Z,1.58
2022-09-10T09:29:28.628Z,1.33
2022-09-10T09:32:00.768Z,1.40
2022-09-10T09:34:54.812Z,1.55
2022-09-10T09:37:30.481Z,1.40
2022-09-10T09:40:13.610Z,1.73
2022-09-10T09:43:23.739Z,1.50
2022-09-10T09:45:54.160Z,2.10
2022-09-10T09:48:24.607Z,2.20
2022-09-10T09:51:00.405Z,2.83
2022-09-10T09:53:29.814Z,2.70
2022-09-10T09:56:00.869Z,2.40
2022-09-10T09:58:31.418Z,2.85
2022-09-10T10:01:05.202Z,2.15
2022-09-10T10:03:54.118Z,1.83
2022-09-10T10:06:27.808Z,1.80
2022-09-10T10:08:57.347Z,1.70
2022-09-10T10:11:47.517Z,1.88
2022-09-10T10:14:41.374Z,1.35
2022-09-10T10:17:41.489Z,1.30
2022-09-10T10:20:10.873Z,1.30
2022-09-10T10:22:40.826Z,1.40
2022-09-10T10:25:36.592Z,1.40
2022-09-10T10:28:15.236Z,1.90
2022-09-10T10:30:42.674Z,1.40
2022-09-10T10:33:22.121Z,1.60
2022-09-10T10:35:53.868Z,1.60
2022-09-10T10:38:40.704Z,1.33
2022-09-10T10:41:17.123Z,1.55
2022-09-10T10:44:12.679Z,1.80
2022-09-10T10:47:06.528Z,1.60
2022-09-10T10:50:03.403Z,1.52
2022-09-10T10:52:46.824Z,1.67
2022-09-10T10:55:40.567Z,1.42
2022-09-10T11:01:20.007Z,1.65
2022-09-10T11:03:59.575Z,1.60
2022-09-10T11:06:39.262Z,1.60
2022-09-10T11:09:13.943Z,1.48
2022-09-10T11:12:01.370Z,1.85
2022-09-10T11:14:49.647Z,1.30
2022-09-10T11:17:29.716Z,1.60
2022-09-10T11:20:24.622Z,1.20
2022-09-10T11:22:57.500Z,1.40
2022-09-10T11:25:27.930Z,1.40
2022-09-10T11:28:04.256Z,1.90
2022-09-10T11:30:34.882Z,1.50
2022-09-10T11:33:17.541Z,1.52
2022-09-10T11:35:51.309Z,1.20
2022-09-10T11:38:22.366Z,1.40
2022-09-10T11:41:10.811Z,1.35
2022-09-10T11:43:44.329Z,1.63
2022-09-10T11:46:49.051Z,1.40
2022-09-10T11:49:26.579Z,1.60
2022-09-10T11:51:53.973Z,1.17
2022-09-10T11:54:31.481Z,1.35
2022-09-10T11:57:06.733Z,1.70
2022-09-10T12:00:01.285Z,2.38
2022-09-10T12:02:43.843Z,2.05
2022-09-10T12:05:48.245Z,1.90
2022-09-10T12:08:33.244Z,3.05
2022-09-10T12:11:19.177Z,5.35
2022-09-10T12:13:50.246Z,4.85
2022-09-10T12:16:22.532Z,5.18
2022-09-10T12:18:57.545Z,4.33
2022-09-10T12:21:50.078Z,3.97
2022-09-10T12:24:35.413Z,3.72
2022-09-10T12:27:07.023Z,3.45
2022-09-10T12:29:40.665Z,3.35
2022-09-10T12:32:27.227Z,3.60
2022-09-10T12:35:31.237Z,3.00
2022-09-10T12:38:36.695Z,3.20
2022-09-10T12:41:09.670Z,3.30
2022-09-10T12:43:40.231Z,2.92
2022-09-10T12:46:07.977Z,2.50
2022-09-10T12:48:39.866Z,2.50
2022-09-10T12:51:21.814Z,2.00
2022-09-10T12:54:04.703Z,2.40
2022-09-10T12:56:55.843Z,2.00
2022-09-10T12:59:41.984Z,2.10
2022-09-10T13:02:48.156Z,1.70
2022-09-10T13:05:42.531Z,1.80
2022-09-10T13:08:15.891Z,1.75
2022-09-10T13:10:59.807Z,1.70
2022-09-10T13:13:49.150Z,1.70
2022-09-10T13:16:38.336Z,1.50
2022-09-10T13:19:19.376Z,1.60
2022-09-10T13:21:48.125Z,1.80
2022-09-10T13:24:34.689Z,1.58
2022-09-10T13:27:10.594Z,1.60
2022-09-10T13:29:40.701Z,1.30
2022-09-10T13:32:20.369Z,1.50
2022-09-10T13:35:06.843Z,1.30
2022-09-10T13:37:41.519Z,1.13
2022-09-10T13:40:37.299Z,1.40
2022-09-10T13:43:11.933Z,1.40
2022-09-10T13:46:02.767Z,1.63
2022-09-10T13:48:46.115Z,1.33
2022-09-10T13:51:55.143Z,1.30
2022-09-10T13:54:35.843Z,1.35
2022-09-10T13:57:16.312Z,1.50
2022-09-10T13:59:49.052Z,1.20
2022-09-10T14:02:19.774Z,1.55
2022-09-10T14:04:48.214Z,1.30
2022-09-10T14:07:18.272Z,1.50
2022-09-10T14:09:56.822Z,1.50
2022-09-10T14:12:29.734Z,1.48
2022-09-10T14:17:41.219Z,1.80
2022-09-10T14:20:23.583Z,1.42
2022-09-10T14:22:59.923Z,1.80
2022-09-10T14:25:33.892Z,1.30
2022-09-10T14:28:16.574Z,1.55
2022-09-10T14:30:45.277Z,1.40
2022-09-10T14:33:25.571Z,1.20
2022-09-10T14:35:58.175Z,1.45
2022-09-10T14:38:31.411Z,1.73
2022-09-10T14:41:11.340Z,1.20
2022-09-10T14:43:40.611Z,1.23
2022-09-10T14:46:10.242Z,1.40
2022-09-10T14:48:44.358Z,1.27
2022-09-10T14:51:24.696Z,1.20
2022-09-10T14:53:54.598Z,1.30
2022-09-10T14:56:36.307Z,1.15
2022-09-10T14:59:19.874Z,1.10
2022-09-10T15:01:48.643Z,2.08
2022-09-10T15:04:19.222Z,1.67
2022-09-10T15:06:46.799Z,1.30
2022-09-10T15:09:15.073Z,1.40
2022-09-10T15:12:05.757Z,1.40
2022-09-10T15:14:34.247Z,1.60
2022-09-10T15:17:03.310Z,1.58
2022-09-10T15:19:31.943Z,1.33
2022-09-10T15:22:00.702Z,1.30
2022-09-10T15:24:28.305Z,1.25
2022-09-10T15:26:57.003Z,1.40
2022-09-10T15:29:26.616Z,1.50
2022-09-10T15:31:59.434Z,1.42
2022-09-10T15:34:26.787Z,1.85
2022-09-10T15:36:54.509Z,1.80
2022-09-10T15:39:22.600Z,1.80
2022-09-10T15:41:51.006Z,1.70
2022-09-10T15:44:18.773Z,1.85
2022-09-10T15:46:47.218Z,1.80
2022-09-10T15:49:16.964Z,1.77
2022-09-10T15:51:44.964Z,1.70
2022-09-10T15:54:13.201Z,1.85
2022-09-10T15:56:41.660Z,1.48
2022-09-10T15:59:10.442Z,1.42
2022-09-10T16:01:41.422Z,1.40
2022-09-10T16:04:10.186Z,1.70
2022-09-10T16:06:40.488Z,1.50
2022-09-10T16:09:10.979Z,2.00
2022-09-10T16:11:40.397Z,1.52
2022-09-10T16:14:12.697Z,1.70
2022-09-10T16:16:41.145Z,1.70
2022-09-10T16:19:13.003Z,1.63
2022-09-10T16:21:40.819Z,1.83
2022-09-10T16:24:08.256Z,2.00
2022-09-10T16:26:39.349Z,2.05
2022-09-10T16:29:13.587Z,2.05
2022-09-10T16:31:47.212Z,2.00
2022-09-10T16:34:20.120Z,2.50
2022-09-10T16:36:52.531Z,1.73
2022-09-10T16:39:21.205Z,2.20
2022-09-10T16:41:52.986Z,1.80
2022-09-10T16:44:20.340Z,1.67
2022-09-10T16:46:48.698Z,1.70
2022-09-10T16:49:18.454Z,2.10
2022-09-10T16:51:49.512Z,1.90
2022-09-10T16:54:20.357Z,1.60
2022-09-10T16:56:49.031Z,1.80
2022-09-10T16:59:22.229Z,2.10
2022-09-10T17:01:52.029Z,1.95
2022-09-10T17:04:27.629Z,1.90
2022-09-10T17:06:57.481Z,1.98
2022-09-10T17:09:25.389Z,1.95
2022-09-10T17:11:53.269Z,2.08
2022-09-10T17:14:20.771Z,2.08
2022-09-10T17:16:48.784Z,1.92
2022-09-10T17:19:20.274Z,2.20
2022-09-10T17:21:51.329Z,2.55
2022-09-10T17:24:21.248Z,2.08
2022-09-10T17:26:49.441Z,1.90
2022-09-10T17:29:19.241Z,1.80
2022-09-10T17:31:47.176Z,2.25
2022-09-10T17:34:16.316Z,1.60
2022-09-10T17:36:47.397Z,1.85
2022-09-10T17:39:15.943Z,2.13
2022-09-10T17:41:46.199Z,2.03
2022-09-10T17:44:16.826Z,1.38
2022-09-10T17:46:46.551Z,1.80
2022-09-10T17:49:15.051Z,1.50
2022-09-10T17:51:46.689Z,1.50
2022-09-10T17:54:21.653Z,1.63
2022-09-10T17:56:50.374Z,1.70
2022-09-10T17:59:17.934Z,2.03
2022-09-10T18:01:45.461Z,1.90
2022-09-10T18:04:12.939Z,1.85
2022-09-10T18:06:40.877Z,1.40
2022-09-10T18:09:08.828Z,1.63
2022-09-10T18:11:39.984Z,1.77
2022-09-10T18:14:13.779Z,1.75
2022-09-10T18:16:41.450Z,1.90
2022-09-10T18:19:14.543Z,1.50
2022-09-10T18:24:22.558Z,1.60
2022-09-10T18:26:52.071Z,1.42
2022-09-10T18:29:21.327Z,1.67
2022-09-10T18:31:57.679Z,1.70
2022-09-10T18:37:00.294Z,1.88
2022-09-10T18:39:29.597Z,1.60
2022-09-10T18:42:00.647Z,1.50
2022-09-10T18:44:33.388Z,1.55
2022-09-10T18:47:01.184Z,1.48
2022-09-10T18:49:31.776Z,1.55
2022-09-10T18:51:59.595Z,1.52
2022-09-10T18:54:29.946Z,1.70
2022-09-10T18:56:58.466Z,1.40
2022-09-10T18:59:26.161Z,1.85
2022-09-10T19:01:56.002Z,1.42
2022-09-10T19:04:26.802Z,1.70
2022-09-10T19:06:55.029Z,1.40
2022-09-10T19:09:28.574Z,1.55
2022-09-10T19:11:58.503Z,1.35
2022-09-10T19:14:29.362Z,1.58
2022-09-10T19:16:59.554Z,1.40
2022-09-10T19:19:29.333Z,1.25
2022-09-10T19:22:03.361Z,1.70
2022-09-10T19:24:53.893Z,1.80
2022-09-10T19:27:19.989Z,1.50
2022-09-10T19:29:49.695Z,1.38
2022-09-10T19:32:21.547Z,1.27
2022-09-10T19:34:50.289Z,1.73
2022-09-10T19:37:17.792Z,1.38
2022-09-10T19:39:46.291Z,1.50
2022-09-10T19:42:14.056Z,1.45
2022-09-10T19:44:41.370Z,1.60
2022-09-10T19:47:09.147Z,1.30
2022-09-10T19:49:36.512Z,1.25
2022-09-10T19:52:04.348Z,1.55
2022-09-10T19:54:33.873Z,1.15
2022-09-10T19:57:03.895Z,1.48
2022-09-10T19:59:31.565Z,1.42
2022-09-10T20:01:59.261Z,1.60
2022-09-10T20:04:27.700Z,1.33
2022-09-10T20:06:55.221Z,1.20
2022-09-10T20:09:22.637Z,1.45
2022-09-10T20:11:50.307Z,1.30
2022-09-10T20:14:17.805Z,1.30
2022-09-10T20:16:47.737Z,1.17
2022-09-10T20:19:21.987Z,1.40
2022-09-10T20:21:49.960Z,1.20
2022-09-10T20:24:17.525Z,1.35
2022-09-10T20:26:46.452Z,1.30
2022-09-10T20:29:16.385Z,1.40
2022-09-10T20:31:44.584Z,1.25
2022-09-10T20:34:15.981Z,1.30
2022-09-10T20:36:43.798Z,1.27
2022-09-10T20:39:17.334Z,1.23
2022-09-10T20:41:45.806Z,0.93
2022-09-10T20:44:15.493Z,1.20
2022-09-10T20:46:43.303Z,1.27
2022-09-10T20:49:12.752Z,1.30
2022-09-10T20:51:40.801Z,1.42
2022-09-10T20:54:11.744Z,1.10
2022-09-10T20:56:39.753Z,1.35
2022-09-10T20:59:07.221Z,1.35
2022-09-10T21:01:35.029Z,1.30
2022-09-10T21:04:04.082Z,1.20
2022-09-10T21:06:33.454Z,1.30
2022-09-10T21:09:02.117Z,1.20
2022-09-10T21:11:32.294Z,1.30
2022-09-10T21:14:01.915Z,1.25
2022-09-10T21:16:35.465Z,1.50
2022-09-10T21:19:10.067Z,1.33
2022-09-10T21:21:42.277Z,1.30
2022-09-10T21:24:14.999Z,1.23
2022-09-10T21:26:43.559Z,1.13
2022-09-10T21:29:17.717Z,1.27
2022-09-10T21:31:45.728Z,1.40
2022-09-10T21:34:14.134Z,1.00
2022-09-10T21:36:43.713Z,1.50
2022-09-10T21:39:14.435Z,1.20
2022-09-10T21:41:47.528Z,1.70
2022-09-10T21:44:18.505Z,1.13
2022-09-10T21:46:47.465Z,1.20
2022-09-10T21:49:16.188Z,1.30
2022-09-10T21:51:43.932Z,1.30
2022-09-10T21:54:20.964Z,1.20
2022-09-10T21:56:49.884Z,1.10
2022-09-10T21:59:21.434Z,1.27
2022-09-10T22:01:49.464Z,1.33
2022-09-10T22:04:22.091Z,1.23
2022-09-10T22:06:50.282Z,1.40
2022-09-10T22:09:19.903Z,1.40
2022-09-10T22:11:50.319Z,1.52
2022-09-10T22:14:23.216Z,1.30
2022-09-10T22:16:51.682Z,1.52
2022-09-10T22:19:22.666Z,1.30
2022-09-10T22:21:54.170Z,1.20
2022-09-10T22:24:22.337Z,1.42
2022-09-10T22:26:50.264Z,1.15
2022-09-10T22:29:19.735Z,1.52
2022-09-10T22:31:48.502Z,1.08
2022-09-10T22:34:17.853Z,1.33
2022-09-10T22:36:48.462Z,1.48
2022-09-10T22:39:18.372Z,1.20
2022-09-10T22:41:46.825Z,1.20
2022-09-10T22:44:14.738Z,1.27
2022-09-10T22:46:42.993Z,1.30
2022-09-10T22:49:10.973Z,1.35
2022-09-10T22:51:41.075Z,1.50
2022-09-10T22:54:10.761Z,1.30
2022-09-10T22:56:39.607Z,1.15
2022-09-10T22:59:07.839Z,1.40
2022-09-10T23:01:37.493Z,1.27
2022-09-10T23:04:07.019Z,1.60
2022-09-10T23:06:36.964Z,1.38
2022-09-10T23:09:15.997Z,1.42
2022-09-10T23:11:44.677Z,1.20
2022-09-10T23:14:19.110Z,1.42
2022-09-10T23:16:49.299Z,1.38
2022-09-10T23:19:22.153Z,1.13
2022-09-10T23:21:52.449Z,1.30
2022-09-10T23:24:24.182Z,1.40
2022-09-10T23:26:51.762Z,1.42
2022-09-10T23:29:20.592Z,1.50
2022-09-10T23:31:48.011Z,1.10
2022-09-10T23:34:18.146Z,1.30
2022-09-10T23:36:48.476Z,1.25
2022-09-10T23:39:24.115Z,1.30
2022-09-10T23:41:56.712Z,1.20
2022-09-10T23:44:25.057Z,1.30
2022-09-10T23:46:53.549Z,1.52
2022-09-10T23:49:21.393Z,1.30
2022-09-10T23:51:49.125Z,1.00
2022-09-10T23:54:17.086Z,1.52
2022-09-10T23:56:44.819Z,1.42
2022-09-10T23:59:12.586Z,1.20
